createdAt,value
2023-05-10T00:01:12.199Z,5.28
2023-05-10T00:03:38.800Z,4.70
2023-05-10T00:06:05.605Z,4.78
2023-05-10T00:08:32.215Z,4.50
2023-05-10T00:10:58.685Z,4.82
2023-05-10T00:13:25.710Z,4.90
2023-05-10T00:15:52.376Z,5.15
2023-05-10T00:18:18.848Z,4.70
2023-05-10T00:20:46.988Z,5.07
2023-05-10T00:23:13.448Z,4.78
2023-05-10T00:25:39.945Z,5.25
2023-05-10T00:28:06.400Z,4.63
2023-05-10T00:30:32.858Z,4.97
2023-05-10T00:32:59.341Z,4.35
2023-05-10T00:35:25.808Z,4.60
2023-05-10T00:37:52.382Z,4.93
2023-05-10T00:40:19.015Z,5.55
2023-05-10T00:42:45.712Z,5.10
2023-05-10T00:45:12.688Z,5.15
2023-05-10T00:47:39.704Z,4.30
2023-05-10T00:50:07.048Z,5.43
2023-05-10T00:52:33.875Z,4.85
2023-05-10T00:55:01.368Z,4.28
2023-05-10T00:57:28.030Z,4.40
2023-05-10T00:59:54.611Z,4.80
2023-05-10T01:02:21.243Z,4.60
2023-05-10T01:04:48.362Z,4.65
2023-05-10T01:07:14.883Z,5.70
2023-05-10T01:13:43.301Z,5.05
2023-05-10T01:16:10.144Z,4.55
2023-05-10T01:18:40.055Z,5.35
2023-05-10T01:21:24.615Z,5.32
2023-05-10T01:24:23.377Z,3.72
2023-05-10T01:27:08.103Z,3.83
2023-05-10T01:30:15.460Z,3.90
2023-05-10T01:32:45.355Z,4.07
2023-05-10T01:35:15.474Z,4.25
2023-05-10T01:37:45.764Z,3.83
2023-05-10T01:40:31.314Z,5.00
2023-05-10T01:43:03.909Z,4.63
2023-05-10T01:45:38.843Z,4.85
2023-05-10T01:48:11.289Z,4.72
2023-05-10T01:50:42.659Z,5.50
2023-05-10T01:53:11.602Z,6.55
2023-05-10T01:58:14.175Z,6.88
2023-05-10T02:00:47.202Z,6.97
2023-05-10T02:03:16.138Z,6.60
2023-05-10T02:08:13.221Z,4.80
2023-05-10T02:10:41.250Z,4.72
2023-05-10T02:13:10.459Z,5.38
2023-05-10T02:15:39.672Z,6.22
2023-05-10T02:18:07.284Z,5.50
2023-05-10T02:20:35.909Z,5.90
2023-05-10T02:23:04.199Z,6.05
2023-05-10T02:25:32.537Z,6.00
2023-05-10T02:28:02.975Z,5.95
2023-05-10T02:30:31.959Z,5.45
2023-05-10T02:35:28.010Z,4.75
2023-05-10T02:37:55.685Z,5.82
2023-05-10T02:40:23.458Z,5.00
2023-05-10T02:42:53.435Z,5.18
2023-05-10T02:45:22.992Z,5.40
2023-05-10T02:47:49.754Z,4.57
2023-05-10T02:50:16.940Z,5.43
2023-05-10T02:52:48.669Z,5.18
2023-05-10T02:55:17.820Z,5.35
2023-05-10T02:57:51.575Z,5.40
2023-05-10T03:00:18.519Z,6.32
2023-05-10T03:02:45.247Z,5.65
2023-05-10T03:05:11.739Z,5.82
2023-05-10T03:07:38.429Z,5.75
2023-05-10T03:10:06.462Z,5.32
2023-05-10T03:12:42.252Z,6.35
2023-05-10T03:15:38.533Z,6.25
2023-05-10T03:18:13.952Z,5.03
2023-05-10T03:20:44.273Z,5.63
2023-05-10T03:23:20.480Z,4.82
2023-05-10T03:25:49.276Z,5.53
2023-05-10T03:28:16.932Z,4.90
2023-05-10T03:30:44.723Z,5.28
2023-05-10T03:33:11.739Z,5.05
2023-05-10T03:35:38.191Z,5.13
2023-05-10T03:38:04.658Z,4.75
2023-05-10T03:40:32.858Z,5.18
2023-05-10T03:43:00.080Z,4.95
2023-05-10T03:45:26.750Z,5.80
2023-05-10T03:47:53.382Z,5.50
2023-05-10T03:50:20.193Z,5.20
2023-05-10T03:52:46.907Z,4.88
2023-05-10T03:55:13.525Z,5.13
2023-05-10T03:57:40.040Z,5.25
2023-05-10T04:00:07.109Z,5.05
2023-05-10T04:02:33.675Z,5.45
2023-05-10T04:05:00.310Z,5.43
2023-05-10T04:07:26.801Z,5.13
2023-05-10T04:09:53.395Z,5.22
2023-05-10T04:12:19.862Z,5.72
2023-05-10T04:14:46.395Z,5.75
2023-05-10T04:17:13.027Z,5.38
2023-05-10T04:19:39.587Z,5.65
2023-05-10T04:22:06.090Z,5.93
2023-05-10T04:24:32.574Z,6.30
2023-05-10T04:26:59.068Z,6.07
2023-05-10T04:29:25.617Z,6.00
2023-05-10T04:31:52.065Z,6.60
2023-05-10T04:34:18.570Z,6.43
2023-05-10T04:36:45.323Z,6.85
2023-05-10T04:39:11.768Z,7.88
2023-05-10T04:41:39.208Z,7.75
2023-05-10T04:44:05.707Z,8.20
2023-05-10T04:46:32.311Z,7.57
2023-05-10T04:48:58.846Z,7.82
2023-05-10T04:51:25.437Z,8.18
2023-05-10T04:54:04.654Z,9.07
2023-05-10T04:56:32.455Z,9.05
2023-05-10T04:58:58.973Z,9.25
2023-05-10T05:01:25.522Z,8.57
2023-05-10T05:03:54.027Z,9.60
2023-05-10T05:06:22.111Z,9.10
2023-05-10T05:08:50.497Z,9.25
2023-05-10T05:11:18.058Z,9.75
2023-05-10T05:13:44.830Z,10.00
2023-05-10T05:16:12.286Z,8.98
2023-05-10T05:18:39.079Z,9.27
2023-05-10T05:21:17.715Z,9.05
2023-05-10T05:23:44.383Z,8.80
2023-05-10T05:26:11.578Z,10.32
2023-05-10T05:28:38.592Z,10.00
2023-05-10T05:31:06.515Z,10.27
2023-05-10T05:33:33.057Z,10.73
2023-05-10T05:36:02.467Z,10.00
2023-05-10T05:38:29.101Z,9.30
2023-05-10T05:40:55.802Z,9.82
2023-05-10T05:43:22.275Z,9.77
2023-05-10T05:45:48.891Z,9.55
2023-05-10T05:48:15.407Z,8.35
2023-05-10T05:50:41.912Z,9.90
2023-05-10T05:53:09.044Z,11.00
2023-05-10T05:55:35.562Z,10.95
2023-05-10T05:58:02.105Z,10.93
2023-05-10T06:00:28.731Z,10.73
2023-05-10T06:02:55.371Z,10.70
2023-05-10T06:05:22.031Z,10.43
2023-05-10T06:07:48.520Z,11.15
2023-05-10T06:10:15.017Z,12.40
2023-05-10T06:12:41.574Z,12.82
2023-05-10T06:15:08.727Z,11.25
2023-05-10T06:17:35.487Z,11.25
2023-05-10T06:20:02.150Z,12.57
2023-05-10T06:22:28.767Z,13.18
2023-05-10T06:24:55.317Z,12.93
2023-05-10T06:27:21.782Z,13.00
2023-05-10T06:29:48.346Z,13.07
2023-05-10T06:32:17.069Z,12.65
2023-05-10T06:34:44.985Z,12.80
2023-05-10T06:37:11.617Z,13.20
2023-05-10T06:39:38.109Z,12.02
2023-05-10T06:42:05.644Z,12.38
2023-05-10T06:44:32.210Z,12.30
2023-05-10T06:46:58.782Z,12.52
2023-05-10T06:49:25.455Z,12.75
2023-05-10T06:51:52.055Z,11.30
2023-05-10T06:54:18.725Z,11.80
2023-05-10T06:56:45.306Z,12.32
2023-05-10T06:59:12.008Z,12.45
2023-05-10T07:01:38.559Z,12.13
2023-05-10T07:04:05.095Z,12.15
2023-05-10T07:06:34.293Z,12.25
2023-05-10T07:09:01.398Z,12.23
2023-05-10T07:11:28.055Z,13.10
2023-05-10T07:13:54.535Z,12.68
2023-05-10T07:16:22.407Z,12.35
2023-05-10T07:18:49.049Z,12.57
2023-05-10T07:21:15.616Z,11.35
2023-05-10T07:23:43.676Z,10.93
2023-05-10T07:26:11.519Z,11.95
2023-05-10T07:28:38.598Z,12.00
2023-05-10T07:31:05.165Z,11.43
2023-05-10T07:33:31.757Z,10.98
2023-05-10T07:35:58.566Z,11.02
2023-05-10T07:38:25.085Z,10.10
2023-05-10T07:40:51.537Z,11.32
2023-05-10T07:43:18.235Z,10.18
2023-05-10T07:45:44.811Z,10.23
2023-05-10T07:48:11.475Z,11.02
2023-05-10T07:50:37.966Z,10.00
2023-05-10T07:53:04.453Z,10.25
2023-05-10T07:55:31.253Z,10.30
2023-05-10T07:57:57.823Z,9.13
2023-05-10T08:00:24.312Z,9.52
2023-05-10T08:02:50.892Z,9.68
2023-05-10T08:05:17.822Z,12.00
2023-05-10T08:07:44.514Z,11.15
2023-05-10T08:10:12.291Z,13.18
2023-05-10T08:12:39.700Z,12.63
2023-05-10T08:15:07.663Z,12.25
2023-05-10T08:17:34.243Z,12.90
2023-05-10T08:20:00.884Z,12.73
2023-05-10T08:22:28.515Z,12.55
2023-05-10T08:24:55.208Z,13.00
2023-05-10T08:27:21.762Z,13.02
2023-05-10T08:29:50.327Z,12.75
2023-05-10T08:32:17.375Z,13.63
2023-05-10T08:34:43.976Z,13.77
2023-05-10T08:37:13.982Z,13.25
2023-05-10T08:39:40.720Z,12.63
2023-05-10T08:42:08.104Z,13.23
2023-05-10T08:44:37.385Z,12.25
2023-05-10T08:47:08.000Z,11.20
2023-05-10T08:49:35.105Z,11.30
2023-05-10T08:52:05.144Z,11.18
2023-05-10T08:54:34.110Z,10.85
2023-05-10T08:57:01.185Z,11.23
2023-05-10T08:59:28.159Z,10.85
2023-05-10T09:01:58.334Z,10.90
2023-05-10T09:04:25.757Z,11.40
2023-05-10T09:06:52.692Z,9.77
2023-05-10T09:09:20.960Z,10.60
2023-05-10T09:11:47.997Z,10.00
2023-05-10T09:14:16.170Z,11.25
2023-05-10T09:16:43.080Z,10.35
2023-05-10T09:19:09.833Z,9.73
2023-05-10T09:21:40.176Z,9.90
2023-05-10T09:24:08.096Z,9.55
2023-05-10T09:26:36.459Z,9.18
2023-05-10T09:29:04.016Z,9.43
2023-05-10T09:31:53.425Z,8.00
2023-05-10T09:34:22.103Z,8.63
2023-05-10T09:39:39.230Z,7.65
2023-05-10T09:42:08.275Z,7.57
2023-05-10T09:44:35.278Z,7.05
2023-05-10T09:47:02.663Z,7.38
2023-05-10T09:49:29.695Z,7.22
2023-05-10T09:52:07.334Z,7.07
2023-05-10T09:54:35.270Z,7.65
2023-05-10T09:57:02.257Z,7.45
2023-05-10T09:59:29.769Z,7.53
2023-05-10T10:02:00.776Z,7.63
2023-05-10T10:04:29.134Z,7.28
2023-05-10T10:07:04.554Z,6.90
2023-05-10T10:09:32.067Z,7.53
2023-05-10T10:11:59.787Z,8.27
2023-05-10T10:14:27.176Z,8.65
2023-05-10T10:17:06.467Z,7.80
2023-05-10T10:19:36.737Z,8.15
2023-05-10T10:22:03.828Z,9.52
2023-05-10T10:24:30.490Z,8.38
2023-05-10T10:27:04.153Z,8.48
2023-05-10T10:29:46.845Z,7.35
2023-05-10T10:32:26.521Z,8.45
2023-05-10T10:34:53.634Z,6.97
2023-05-10T10:37:20.201Z,7.63
2023-05-10T10:39:49.542Z,7.00
2023-05-10T10:42:45.978Z,6.65
2023-05-10T10:45:14.524Z,6.90
2023-05-10T10:50:09.245Z,6.65
2023-05-10T10:52:39.308Z,6.55
2023-05-10T10:55:10.098Z,6.28
2023-05-10T10:57:48.465Z,6.68
2023-05-10T11:00:24.333Z,6.40
2023-05-10T11:03:09.456Z,5.57
2023-05-10T11:05:41.283Z,5.10
2023-05-10T11:08:09.789Z,5.35
2023-05-10T11:10:36.772Z,6.03
2023-05-10T11:13:05.368Z,6.90
2023-05-10T11:15:33.182Z,7.45
2023-05-10T11:18:00.569Z,6.72
2023-05-10T11:20:39.454Z,6.65
2023-05-10T11:23:14.037Z,6.50
2023-05-10T11:25:45.224Z,5.82
2023-05-10T11:28:12.931Z,6.57
2023-05-10T11:30:44.774Z,6.30
2023-05-10T11:33:17.019Z,6.40
2023-05-10T11:35:43.916Z,6.70
2023-05-10T11:38:12.001Z,6.30
2023-05-10T11:40:39.291Z,6.47
2023-05-10T11:43:06.734Z,6.50
2023-05-10T11:45:34.341Z,5.82
2023-05-10T11:48:02.205Z,6.13
2023-05-10T11:50:29.348Z,5.60
2023-05-10T11:52:56.932Z,5.57
2023-05-10T11:55:25.234Z,5.38
2023-05-10T11:57:55.891Z,5.32
2023-05-10T12:00:22.868Z,4.95
2023-05-10T12:02:49.988Z,4.30
2023-05-10T12:05:17.046Z,4.45
2023-05-10T12:07:43.758Z,4.70
2023-05-10T12:10:18.883Z,4.15
2023-05-10T12:12:51.180Z,4.10
2023-05-10T12:15:25.722Z,4.65
2023-05-10T12:17:52.629Z,4.57
2023-05-10T12:20:23.702Z,4.95
2023-05-10T12:22:53.151Z,5.18
2023-05-10T12:25:21.315Z,4.80
2023-05-10T12:27:58.698Z,4.82
2023-05-10T12:30:30.120Z,5.20
2023-05-10T12:33:04.412Z,4.70
2023-05-10T12:35:32.380Z,5.15
2023-05-10T12:37:59.203Z,4.60
2023-05-10T12:40:25.919Z,5.28
2023-05-10T12:42:53.536Z,4.70
2023-05-10T12:45:20.117Z,4.55
2023-05-10T12:47:46.611Z,4.68
2023-05-10T12:50:13.109Z,4.47
2023-05-10T12:52:39.638Z,4.45
2023-05-10T12:55:06.369Z,4.90
2023-05-10T12:57:32.821Z,4.82
2023-05-10T12:59:59.371Z,4.97
2023-05-10T13:02:25.988Z,5.60
2023-05-10T13:04:53.815Z,6.00
2023-05-10T13:07:20.378Z,5.40
2023-05-10T13:09:47.027Z,4.30
2023-05-10T13:12:13.525Z,4.47
2023-05-10T13:14:41.570Z,5.60
2023-05-10T13:17:08.424Z,4.95
2023-05-10T13:19:35.062Z,5.30
2023-05-10T13:22:01.538Z,6.72
2023-05-10T13:24:28.229Z,6.35
2023-05-10T13:26:54.738Z,6.30
2023-05-10T13:29:22.036Z,5.70
2023-05-10T13:31:48.664Z,6.05
2023-05-10T13:34:15.197Z,5.93
2023-05-10T13:36:42.115Z,7.50
2023-05-10T13:39:09.450Z,6.70
2023-05-10T13:41:35.979Z,6.47
2023-05-10T13:44:02.471Z,6.90
2023-05-10T13:46:30.809Z,7.43
2023-05-10T13:51:24.419Z,6.70
2023-05-10T13:53:50.962Z,6.45
2023-05-10T13:56:17.420Z,7.05
2023-05-10T13:58:43.903Z,6.70
2023-05-10T14:01:10.477Z,6.47
2023-05-10T14:03:37.173Z,6.10
2023-05-10T14:06:04.026Z,5.95
2023-05-10T14:08:30.535Z,7.25
2023-05-10T14:10:57.896Z,8.00
2023-05-10T14:13:24.764Z,7.93
2023-05-10T14:15:51.488Z,8.20
2023-05-10T14:18:18.466Z,8.25
2023-05-10T14:20:45.419Z,7.95
2023-05-10T14:23:12.591Z,7.97
2023-05-10T14:25:41.102Z,8.15
2023-05-10T14:28:07.881Z,7.40
2023-05-10T14:30:35.285Z,8.57
2023-05-10T14:33:03.567Z,8.93
2023-05-10T14:37:58.821Z,9.90
2023-05-10T14:40:25.712Z,8.73
2023-05-10T14:42:53.889Z,9.57
2023-05-10T14:45:21.121Z,8.90
2023-05-10T14:47:47.700Z,9.10
2023-05-10T14:50:24.678Z,8.30
2023-05-10T14:55:27.452Z,7.53
2023-05-10T14:57:54.220Z,7.05
2023-05-10T15:00:21.294Z,6.82
2023-05-10T15:02:49.269Z,6.97
2023-05-10T15:05:16.661Z,6.28
2023-05-10T15:07:44.746Z,7.18
2023-05-10T15:10:12.360Z,6.32
2023-05-10T15:12:39.235Z,5.93
2023-05-10T15:15:07.195Z,5.93
2023-05-10T15:17:34.114Z,5.70
2023-05-10T15:20:01.143Z,6.07
2023-05-10T15:22:29.296Z,6.40
2023-05-10T15:24:55.854Z,5.55
2023-05-10T15:27:22.312Z,6.22
2023-05-10T15:29:48.802Z,6.05
2023-05-10T15:32:15.334Z,5.15
2023-05-10T15:34:42.045Z,5.93
2023-05-10T15:37:08.623Z,4.10
2023-05-10T15:39:35.080Z,2.88
2023-05-10T15:42:02.614Z,1.98
2023-05-10T15:44:29.095Z,1.70
2023-05-10T15:46:55.684Z,1.60
2023-05-10T15:49:22.461Z,1.80
2023-05-10T15:51:49.389Z,1.52
2023-05-10T15:54:15.887Z,1.40
2023-05-10T15:56:42.450Z,1.50
2023-05-10T15:59:10.761Z,1.35
2023-05-10T16:01:37.520Z,1.33
2023-05-10T16:04:04.324Z,1.50
2023-05-10T16:06:31.377Z,1.15
2023-05-10T16:08:57.970Z,1.40
2023-05-10T16:11:24.588Z,1.38
2023-05-10T16:13:51.160Z,1.67
2023-05-10T16:16:18.193Z,1.63
2023-05-10T16:18:44.883Z,1.80
2023-05-10T16:21:11.703Z,1.58
2023-05-10T16:23:38.376Z,1.40
2023-05-10T16:26:05.073Z,1.40
2023-05-10T16:28:32.410Z,1.40
2023-05-10T16:30:59.016Z,1.75
2023-05-10T16:33:25.595Z,1.75
2023-05-10T16:35:52.113Z,1.63
2023-05-10T16:38:18.598Z,1.60
2023-05-10T16:40:45.116Z,1.77
2023-05-10T16:43:11.942Z,1.88
2023-05-10T16:45:38.466Z,1.55
2023-05-10T16:48:05.922Z,1.70
2023-05-10T16:50:32.445Z,2.28
2023-05-10T16:52:59.006Z,2.03
2023-05-10T16:55:26.452Z,2.20
2023-05-10T16:57:53.095Z,1.80
2023-05-10T17:00:20.894Z,2.67
2023-05-10T17:02:47.554Z,2.58
2023-05-10T17:05:14.259Z,2.70
2023-05-10T17:07:40.965Z,2.60
2023-05-10T17:10:08.001Z,2.30
2023-05-10T17:12:34.503Z,2.10
2023-05-10T17:15:01.164Z,2.20
2023-05-10T17:17:27.902Z,1.80
2023-05-10T17:19:54.616Z,2.10
2023-05-10T17:22:21.194Z,1.73
2023-05-10T17:24:47.792Z,1.63
2023-05-10T17:27:14.812Z,1.70
2023-05-10T17:29:41.277Z,1.83
2023-05-10T17:32:09.362Z,1.42
2023-05-10T17:34:36.835Z,1.40
2023-05-10T17:38:07.848Z,1.40
2023-05-10T17:40:34.402Z,1.50
2023-05-10T17:43:00.900Z,1.70
2023-05-10T17:45:27.701Z,1.40
2023-05-10T17:47:54.298Z,1.55
2023-05-10T17:50:20.978Z,1.55
2023-05-10T17:52:47.538Z,1.95
2023-05-10T17:55:14.515Z,1.45
2023-05-10T17:57:41.123Z,2.13
2023-05-10T18:00:09.211Z,1.95
2023-05-10T18:02:39.284Z,1.80
2023-05-10T18:05:06.271Z,2.00
2023-05-10T18:07:32.867Z,2.00
2023-05-10T18:09:59.448Z,2.42
2023-05-10T18:12:25.984Z,2.25
2023-05-10T18:14:52.492Z,2.50
2023-05-10T18:17:19.069Z,3.15
2023-05-10T18:19:45.583Z,3.28
2023-05-10T18:22:12.123Z,2.75
2023-05-10T18:24:39.929Z,2.85
2023-05-10T18:27:08.752Z,2.50
2023-05-10T18:29:36.100Z,2.60
2023-05-10T18:32:02.657Z,2.50
2023-05-10T18:34:29.169Z,3.00
2023-05-10T18:36:56.325Z,2.55
2023-05-10T18:39:23.163Z,2.58
2023-05-10T18:41:50.251Z,2.50
2023-05-10T18:44:16.775Z,2.65
2023-05-10T18:46:43.493Z,2.60
2023-05-10T18:49:10.157Z,2.78
2023-05-10T18:51:36.722Z,3.05
2023-05-10T18:54:03.548Z,2.75
2023-05-10T18:56:30.094Z,3.25
2023-05-10T18:58:56.738Z,4.10
2023-05-10T19:01:23.255Z,4.05
2023-05-10T19:03:49.808Z,4.22
2023-05-10T19:06:16.395Z,3.10
2023-05-10T19:08:43.000Z,3.60
2023-05-10T19:11:09.492Z,4.47
2023-05-10T19:13:36.190Z,3.88
2023-05-10T19:16:10.614Z,4.25
2023-05-10T19:18:39.943Z,4.22
2023-05-10T19:21:07.809Z,4.43
2023-05-10T19:23:35.317Z,3.90
2023-05-10T19:26:02.191Z,5.05
2023-05-10T19:28:28.914Z,12.65
2023-05-10T19:30:55.633Z,7.65
2023-05-10T19:33:22.229Z,4.68
2023-05-10T19:35:52.239Z,4.45
2023-05-10T19:38:22.697Z,4.93
2023-05-10T19:40:58.545Z,4.72
2023-05-10T19:43:32.745Z,3.55
2023-05-10T19:46:02.317Z,4.18
2023-05-10T19:48:29.234Z,4.07
2023-05-10T19:51:01.433Z,5.50
2023-05-10T19:53:28.160Z,4.68
2023-05-10T19:55:56.271Z,4.68
2023-05-10T19:58:23.476Z,4.95
2023-05-10T20:00:50.151Z,4.55
2023-05-10T20:03:16.808Z,5.28
2023-05-10T20:05:43.401Z,4.85
2023-05-10T20:08:10.056Z,5.00
2023-05-10T20:10:36.554Z,4.60
2023-05-10T20:13:03.149Z,4.90
2023-05-10T20:15:29.642Z,4.68
2023-05-10T20:17:56.221Z,4.15
2023-05-10T20:20:23.559Z,4.60
2023-05-10T20:22:50.370Z,4.78
2023-05-10T20:25:18.152Z,3.50
2023-05-10T20:27:44.699Z,4.50
2023-05-10T20:30:12.095Z,4.80
2023-05-10T20:32:39.197Z,4.50
2023-05-10T20:35:07.112Z,4.50
2023-05-10T20:37:34.049Z,4.80
2023-05-10T20:40:01.068Z,4.82
2023-05-10T20:42:27.658Z,3.15
2023-05-10T20:44:54.152Z,4.57
2023-05-10T20:47:20.974Z,4.00
2023-05-10T20:49:47.541Z,4.75
2023-05-10T20:52:14.049Z,4.40
2023-05-10T20:54:40.695Z,4.63
2023-05-10T20:57:07.508Z,4.88
2023-05-10T20:59:34.226Z,5.00
2023-05-10T21:02:01.223Z,5.68
2023-05-10T21:04:27.962Z,3.55
2023-05-10T21:06:56.166Z,4.18
2023-05-10T21:09:22.820Z,4.20
2023-05-10T21:11:50.290Z,4.70
2023-05-10T21:14:16.818Z,5.65
2023-05-10T21:16:43.594Z,6.25
2023-05-10T21:19:10.281Z,4.20
2023-05-10T21:21:36.789Z,4.70
2023-05-10T21:24:03.522Z,4.85
2023-05-10T21:26:30.031Z,4.95
2023-05-10T21:28:56.648Z,4.63
2023-05-10T21:31:23.191Z,5.65
2023-05-10T21:33:49.681Z,5.10
2023-05-10T21:36:16.182Z,5.57
2023-05-10T21:38:44.474Z,5.38
2023-05-10T21:41:11.145Z,5.15
2023-05-10T21:43:37.679Z,5.75
2023-05-10T21:46:04.568Z,5.60
2023-05-10T21:48:31.271Z,5.90
2023-05-10T21:50:57.781Z,5.22
2023-05-10T21:53:24.381Z,5.25
2023-05-10T21:55:50.837Z,5.47
2023-05-10T21:58:17.398Z,5.47
2023-05-10T22:00:43.939Z,4.90
2023-05-10T22:03:10.475Z,5.85
2023-05-10T22:05:37.046Z,5.43
2023-05-10T22:08:03.635Z,5.70
2023-05-10T22:10:30.422Z,5.85
2023-05-10T22:12:57.303Z,5.70
2023-05-10T22:15:23.848Z,5.55
2023-05-10T22:17:50.365Z,5.65
2023-05-10T22:20:17.078Z,5.55
2023-05-10T22:22:44.701Z,5.25
2023-05-10T22:25:11.336Z,5.22
2023-05-10T22:27:37.824Z,5.95
2023-05-10T22:30:04.778Z,6.07
2023-05-10T22:32:31.938Z,6.15
2023-05-10T22:34:58.767Z,6.10
2023-05-10T22:37:25.248Z,6.72
2023-05-10T22:39:52.421Z,6.00
2023-05-10T22:42:18.916Z,6.50
2023-05-10T22:44:45.461Z,6.85
2023-05-10T22:47:12.017Z,6.32
2023-05-10T22:49:38.452Z,7.30
2023-05-10T22:52:04.952Z,7.43
2023-05-10T22:54:31.826Z,7.82
2023-05-10T22:56:59.211Z,6.72
2023-05-10T22:59:28.487Z,5.88
2023-05-10T23:01:55.054Z,6.88
2023-05-10T23:04:21.596Z,6.70
2023-05-10T23:06:48.063Z,6.78
2023-05-10T23:09:14.508Z,7.22
2023-05-10T23:11:41.152Z,6.43
2023-05-10T23:14:07.938Z,6.97
2023-05-10T23:16:34.441Z,6.43
2023-05-10T23:19:01.039Z,7.20
2023-05-10T23:21:29.310Z,6.78
2023-05-10T23:23:57.143Z,6.55
2023-05-10T23:26:23.640Z,7.70
2023-05-10T23:28:50.099Z,7.57
2023-05-10T23:31:16.691Z,7.15
2023-05-10T23:33:43.247Z,7.13
2023-05-10T23:36:09.873Z,7.10
2023-05-10T23:38:38.207Z,6.95
2023-05-10T23:41:04.805Z,8.02
2023-05-10T23:43:31.601Z,7.50
2023-05-10T23:45:58.369Z,7.57
2023-05-10T23:48:25.621Z,8.27
2023-05-10T23:50:52.125Z,7.72
2023-05-10T23:53:19.112Z,6.53
2023-05-10T23:55:45.885Z,8.93
2023-05-10T23:58:12.634Z,7.53
